Time;durP1;ratioP1;P1;durP2;ratioP2;P2;SDS_P1;SDS_P2;PMS_P1;PMS_P2;Temp;Humidity;BMP_temperature;BMP_pressure;BME280_temperature;BME280_humidity;BME280_pressure;Samples;Min_cycle;Max_cycle;Signal;HPM_P1;HPM_P2
2022/02/03 00:02:32;;;;;;;16.37;6.20;;;;;;;;;;6051382;29;20233;-62
2022/02/03 00:05:57;;;;;;;23.13;5.57;;;;;;;;;;6055639;29;20264;-61
2022/02/03 00:09:52;;;;;;;14.67;4.97;;;;;;;;;;6058808;29;20226;-62
2022/02/03 00:17:04;;;;;;;15.73;5.60;;;;;;;;;;6058265;29;20233;-61
2022/02/03 00:24:11;;;;;;;9.63;4.37;;;;;;;;;;6054742;29;20564;-62
2022/02/03 00:31:22;;;;;;;16.17;5.13;;;;;;;;;;6055289;29;20237;-62
2022/02/03 00:34:52;;;;;;;14.67;4.60;;;;;;;;;;6058959;29;20260;-62
2022/02/03 00:38:27;;;;;;;14.03;4.40;;;;;;;;;;6059002;29;20229;-63
2022/02/03 00:49:09;;;;;;;14.07;5.03;;;;;;;;;;6064746;29;20233;-62
2022/02/03 00:52:33;;;;;;;12.37;5.60;;;;;;;;;;6053702;29;20245;-62
2022/02/03 00:55:54;;;;;;;13.10;3.83;;;;;;;;;;6049585;29;20263;-62
2022/02/03 00:59:20;;;;;;;9.10;3.47;;;;;;;;;;6057990;29;20234;-62
2022/02/03 01:02:44;;;;;;;15.27;5.67;;;;;;;;;;6063401;29;20241;-62
2022/02/03 01:06:05;;;;;;;10.73;4.20;;;;;;;;;;6058320;29;20265;-61
2022/02/03 01:09:27;;;;;;;15.03;5.27;;;;;;;;;;6055229;29;20244;-62
2022/02/03 01:12:57;;;;;;;13.47;4.20;;;;;;;;;;6046061;29;20603;-61
2022/02/03 01:16:29;;;;;;;10.80;3.57;;;;;;;;;;6047017;29;20752;-62
2022/02/03 01:20:30;;;;;;;12.30;4.17;;;;;;;;;;6052279;29;20512;-60
2022/02/03 01:34:56;;;;;;;10.50;4.10;;;;;;;;;;6066263;29;20320;-62
2022/02/03 01:45:51;;;;;;;17.03;5.70;;;;;;;;;;6057472;29;20228;-61
2022/02/03 01:49:16;;;;;;;16.77;4.00;;;;;;;;;;6061879;29;20229;-62
2022/02/03 01:52:38;;;;;;;12.87;4.60;;;;;;;;;;6051712;29;20328;-63
2022/02/03 01:56:04;;;;;;;11.63;4.33;;;;;;;;;;6058554;29;20237;-62
2022/02/03 01:59:26;;;;;;;14.00;3.90;;;;;;;;;;6056511;29;20229;-61
2022/02/03 02:02:55;;;;;;;16.83;4.67;;;;;;;;;;6056613;29;20511;-62
2022/02/03 02:06:26;;;;;;;12.27;3.90;;;;;;;;;;6059961;29;20279;-61
2022/02/03 02:10:02;;;;;;;19.03;4.67;;;;;;;;;;6057578;29;20228;-61
2022/02/03 02:13:42;;;;;;;10.17;4.00;;;;;;;;;;6057303;29;20320;-62
2022/02/03 02:39:11;;;;;;;14.40;5.13;;;;;;;;;;6055638;29;20238;-62
2022/02/03 02:42:36;;;;;;;14.17;4.77;;;;;;;;;;6059837;29;20240;-62
2022/02/03 02:46:01;;;;;;;18.00;5.80;;;;;;;;;;6055563;29;21117;-62
2022/02/03 02:49:24;;;;;;;12.90;4.60;;;;;;;;;;6058241;29;20229;-63
2022/02/03 02:52:52;;;;;;;12.67;4.30;;;;;;;;;;6064207;29;20316;-61
2022/02/03 02:56:22;;;;;;;16.30;6.13;;;;;;;;;;6057794;29;20229;-62
2022/02/03 03:00:18;;;;;;;15.43;5.00;;;;;;;;;;6058713;29;20233;-61
2022/02/03 03:04:26;;;;;;;11.97;5.10;;;;;;;;;;6056000;29;20244;-61
2022/02/03 03:29:57;;;;;;;14.10;5.27;;;;;;;;;;6060871;29;20256;-62
2022/02/03 03:33:24;;;;;;;17.07;5.50;;;;;;;;;;6065394;29;20229;-60
2022/02/03 03:36:48;;;;;;;21.47;7.90;;;;;;;;;;6070829;29;20312;-62
2022/02/03 03:40:10;;;;;;;17.33;4.67;;;;;;;;;;6064714;29;20509;-62
2022/02/03 03:43:34;;;;;;;14.97;4.93;;;;;;;;;;6060433;29;20254;-62
2022/02/03 03:46:58;;;;;;;10.43;4.23;;;;;;;;;;6053977;29;20242;-63
2022/02/03 03:50:18;;;;;;;15.43;7.33;;;;;;;;;;6054171;29;20265;-61
2022/02/03 03:53:47;;;;;;;14.00;6.80;;;;;;;;;;6054493;29;20237;-62
2022/02/03 03:57:16;;;;;;;12.97;5.57;;;;;;;;;;6050760;29;20813;-61
2022/02/03 04:00:56;;;;;;;14.00;5.10;;;;;;;;;;6054660;29;20244;-62
2022/02/03 04:38:08;;;;;;;13.93;7.97;;;;;;;;;;6052134;29;20245;-61
2022/02/03 04:46:01;;;;;;;10.93;7.03;;;;;;;;;;6014786;29;20230;-61
2022/02/03 05:04:34;;;;;;;18.50;9.80;;;;;;;;;;6051569;29;20233;-62
2022/02/03 05:08:33;;;;;;;14.03;6.27;;;;;;;;;;6048216;29;20229;-62
2022/02/03 05:12:12;;;;;;;56.17;42.67;;;;;;;;;;6050700;29;20245;-62
2022/02/03 05:15:53;;;;;;;17.73;10.20;;;;;;;;;;6052129;29;21988;-62
2022/02/03 05:31:54;;;;;;;16.80;9.10;;;;;;;;;;6052280;29;20268;-61
2022/02/03 05:42:19;;;;;;;14.50;7.43;;;;;;;;;;6052049;29;20241;-61
2022/02/03 05:46:18;;;;;;;15.57;7.77;;;;;;;;;;6056434;29;20326;-62
2022/02/03 06:01:07;;;;;;;14.50;9.00;;;;;;;;;;6050790;29;20249;-61
2022/02/03 06:04:45;;;;;;;15.97;8.20;;;;;;;;;;6051671;29;20556;-62
2022/02/03 06:08:18;;;;;;;12.63;9.30;;;;;;;;;;6051964;29;20233;-61
2022/02/03 06:15:23;;;;;;;15.70;8.60;;;;;;;;;;6051357;29;20260;-62
2022/02/03 06:22:28;;;;;;;13.50;9.00;;;;;;;;;;6053802;29;20241;-62
2022/02/03 06:29:34;;;;;;;20.00;11.07;;;;;;;;;;6054281;29;20229;-63
2022/02/03 06:32:54;;;;;;;14.90;8.30;;;;;;;;;;6058189;29;22426;-62
2022/02/03 06:36:15;;;;;;;13.70;9.67;;;;;;;;;;6057437;29;20348;-63
2022/02/03 06:39:36;;;;;;;17.13;10.67;;;;;;;;;;6053140;29;20324;-61
2022/02/03 06:42:58;;;;;;;14.03;10.60;;;;;;;;;;6053127;29;20269;-63
2022/02/03 06:46:18;;;;;;;16.27;10.37;;;;;;;;;;6050883;29;20819;-64
2022/02/03 06:49:48;;;;;;;16.30;9.10;;;;;;;;;;6056559;29;20241;-64
2022/02/03 06:53:12;;;;;;;14.27;10.73;;;;;;;;;;6056921;29;20228;-64
2022/02/03 06:56:39;;;;;;;12.33;10.17;;;;;;;;;;6055998;29;20241;-64
2022/02/03 07:00:04;;;;;;;12.67;8.63;;;;;;;;;;6063472;29;20228;-64
2022/02/03 07:03:28;;;;;;;15.20;10.67;;;;;;;;;;6055858;29;20689;-63
2022/02/03 07:06:48;;;;;;;13.30;10.87;;;;;;;;;;6053734;29;20241;-64
2022/02/03 07:10:09;;;;;;;10.80;9.70;;;;;;;;;;6054446;29;20241;-64
2022/02/03 07:13:34;;;;;;;13.67;10.90;;;;;;;;;;6053457;29;20233;-63
2022/02/03 07:16:56;;;;;;;14.40;11.93;;;;;;;;;;6054253;29;20241;-63
2022/02/03 07:20:19;;;;;;;13.13;11.57;;;;;;;;;;6053866;29;20317;-63
2022/02/03 07:23:40;;;;;;;14.40;11.23;;;;;;;;;;6062497;29;20259;-64
2022/02/03 07:27:01;;;;;;;14.27;11.87;;;;;;;;;;6064064;29;20245;-65
2022/02/03 07:30:23;;;;;;;12.67;11.37;;;;;;;;;;6054053;29;20307;-65
2022/02/03 07:33:44;;;;;;;15.73;10.77;;;;;;;;;;6057787;29;20233;-64
2022/02/03 07:37:05;;;;;;;13.97;12.50;;;;;;;;;;6059265;29;20233;-63
2022/02/03 07:40:25;;;;;;;14.43;12.30;;;;;;;;;;6057417;29;20257;-64
2022/02/03 07:43:46;;;;;;;15.23;13.63;;;;;;;;;;6050981;29;20249;-65
2022/02/03 07:47:08;;;;;;;12.30;11.10;;;;;;;;;;6044119;29;20244;-64
2022/02/03 07:50:28;;;;;;;13.70;12.33;;;;;;;;;;6042569;29;20241;-63
2022/02/03 07:53:49;;;;;;;15.07;12.63;;;;;;;;;;6044765;29;20725;-63
2022/02/03 07:57:09;;;;;;;16.03;13.00;;;;;;;;;;6043023;29;20233;-64
2022/02/03 08:00:31;;;;;;;15.57;12.87;;;;;;;;;;6043808;29;20328;-64
2022/02/03 08:03:53;;;;;;;17.63;13.30;;;;;;;;;;6043732;29;20248;-63
2022/02/03 08:07:16;;;;;;;16.27;13.87;;;;;;;;;;6045699;29;20233;-64
2022/02/03 08:10:41;;;;;;;19.70;15.30;;;;;;;;;;6050126;29;20230;-63
2022/02/03 08:14:08;;;;;;;20.77;14.67;;;;;;;;;;6045685;29;20412;-64
2022/02/03 08:17:35;;;;;;;25.10;18.27;;;;;;;;;;6042188;29;21033;-64
2022/02/03 08:21:02;;;;;;;24.27;17.43;;;;;;;;;;6035031;29;20320;-62
2022/02/03 08:24:25;;;;;;;23.53;16.13;;;;;;;;;;6043145;29;20240;-65
2022/02/03 08:28:15;;;;;;;23.17;18.87;;;;;;;;;;6044848;29;20229;-64
2022/02/03 08:31:41;;;;;;;22.00;16.53;;;;;;;;;;6039389;29;20627;-64
2022/02/03 08:38:49;;;;;;;20.90;16.63;;;;;;;;;;6032344;29;20229;-64
2022/02/03 08:42:10;;;;;;;20.87;16.80;;;;;;;;;;6039021;29;20671;-65
2022/02/03 08:45:30;;;;;;;20.43;16.00;;;;;;;;;;6041984;29;20237;-65
2022/02/03 08:48:52;;;;;;;21.13;16.93;;;;;;;;;;6051086;29;20621;-64
2022/02/03 08:52:17;;;;;;;19.10;17.10;;;;;;;;;;6042126;29;20236;-64
2022/02/03 08:55:47;;;;;;;20.93;15.63;;;;;;;;;;6041814;29;20237;-63
2022/02/03 08:59:24;;;;;;;18.50;15.23;;;;;;;;;;6038394;29;20245;-63
2022/02/03 09:36:03;;;;;;;17.60;15.63;;;;;;;;;;6062126;29;20240;-64
2022/02/03 09:39:39;;;;;;;19.60;17.07;;;;;;;;;;6061562;29;20237;-66
2022/02/03 09:51:24;;;;;;;17.63;15.83;;;;;;;;;;6060574;29;20236;-66
2022/02/03 09:58:14;;;;;;;16.17;13.53;;;;;;;;;;6062945;29;20229;-66
2022/02/03 10:01:41;;;;;;;15.93;13.30;;;;;;;;;;6061017;29;20513;-63
2022/02/03 10:05:13;;;;;;;17.73;15.33;;;;;;;;;;6061612;29;20237;-64
2022/02/03 10:08:35;;;;;;;18.20;15.60;;;;;;;;;;6063511;29;20344;-65
2022/02/03 10:11:59;;;;;;;18.30;15.43;;;;;;;;;;6063956;29;20237;-63
2022/02/03 10:15:21;;;;;;;21.20;16.70;;;;;;;;;;6066366;29;20695;-65
2022/02/03 10:18:41;;;;;;;24.57;18.77;;;;;;;;;;6053451;29;20241;-64
2022/02/03 10:22:03;;;;;;;23.63;17.43;;;;;;;;;;6050332;29;20241;-63
2022/02/03 10:25:25;;;;;;;30.17;21.43;;;;;;;;;;6052056;29;20233;-62
2022/02/03 10:28:54;;;;;;;30.00;24.33;;;;;;;;;;6055762;29;20241;-63
2022/02/03 10:32:14;;;;;;;32.77;23.60;;;;;;;;;;6050308;29;20247;-64
2022/02/03 10:35:43;;;;;;;37.03;26.70;;;;;;;;;;6047413;29;20860;-62
2022/02/03 10:39:22;;;;;;;34.60;24.03;;;;;;;;;;6046921;29;20598;-64
2022/02/03 10:43:29;;;;;;;31.93;25.17;;;;;;;;;;6047298;29;20240;-66
2022/02/03 10:47:38;;;;;;;35.70;27.47;;;;;;;;;;6052210;29;20666;-65
2022/02/03 10:51:19;;;;;;;33.00;26.20;;;;;;;;;;6050159;29;20225;-65
2022/02/03 10:54:52;;;;;;;37.60;25.80;;;;;;;;;;6050011;29;20238;-63
2022/02/03 10:58:39;;;;;;;34.77;26.67;;;;;;;;;;6053159;29;20655;-63
2022/02/03 11:02:13;;;;;;;33.53;25.77;;;;;;;;;;6047702;29;20229;-64
2022/02/03 11:05:55;;;;;;;30.77;25.60;;;;;;;;;;6059631;29;20253;-65
2022/02/03 11:09:21;;;;;;;30.83;25.83;;;;;;;;;;6057238;29;20267;-64
2022/02/03 11:12:43;;;;;;;31.27;23.60;;;;;;;;;;6053848;29;20245;-65
2022/02/03 11:16:06;;;;;;;29.20;22.67;;;;;;;;;;6055664;29;20526;-64
2022/02/03 11:19:28;;;;;;;27.60;22.73;;;;;;;;;;6054122;29;20233;-64
2022/02/03 11:22:55;;;;;;;29.30;24.17;;;;;;;;;;6058040;29;20222;-65
2022/02/03 11:26:25;;;;;;;32.13;25.33;;;;;;;;;;6058561;29;20240;-64
2022/02/03 11:30:38;;;;;;;33.83;26.40;;;;;;;;;;6060375;29;20240;-65
2022/02/03 11:34:27;;;;;;;26.90;22.00;;;;;;;;;;6047991;29;20234;-64
2022/02/03 11:38:02;;;;;;;24.17;19.17;;;;;;;;;;6058226;29;20229;-64
2022/02/03 11:41:47;;;;;;;26.10;21.87;;;;;;;;;;6046421;29;20671;-63
2022/02/03 11:53:14;;;;;;;23.43;19.43;;;;;;;;;;6053433;29;20320;-65
2022/02/03 12:00:51;;;;;;;28.73;22.67;;;;;;;;;;6045755;29;20229;-63
2022/02/03 12:04:36;;;;;;;22.10;19.77;;;;;;;;;;6052751;29;20241;-63
2022/02/03 12:10:17;;;;;;;22.63;18.53;;;;;;;;;;6055716;29;20245;-65
2022/02/03 12:12:38;;;;;;;23.77;18.80;;;;;;;;;;6054383;29;20240;-64
2022/02/03 12:16:05;;;;;;;23.97;20.27;;;;;;;;;;6053671;29;20237;-64
2022/02/03 12:19:33;;;;;;;27.13;21.53;;;;;;;;;;6058364;29;20233;-64
2022/02/03 12:23:06;;;;;;;24.97;21.50;;;;;;;;;;6052367;29;20362;-64
2022/02/03 12:26:34;;;;;;;22.70;20.13;;;;;;;;;;6044707;29;20244;-64
2022/02/03 12:30:02;;;;;;;23.60;20.97;;;;;;;;;;6055907;29;20319;-65
2022/02/03 12:37:15;;;;;;;26.43;20.57;;;;;;;;;;6067930;29;20265;-65
2022/02/03 12:40:51;;;;;;;23.77;21.27;;;;;;;;;;6070133;29;20253;-64
2022/02/03 12:44:19;;;;;;;24.03;20.73;;;;;;;;;;6069063;29;20268;-64
2022/02/03 12:47:42;;;;;;;23.40;20.90;;;;;;;;;;6067987;29;20245;-62
2022/02/03 12:51:02;;;;;;;20.63;18.43;;;;;;;;;;6063792;29;20612;-65
2022/02/03 12:54:23;;;;;;;21.00;18.80;;;;;;;;;;6056761;29;20264;-64
2022/02/03 12:57:47;;;;;;;21.67;17.67;;;;;;;;;;6055849;29;20230;-64
2022/02/03 13:01:12;;;;;;;21.97;16.97;;;;;;;;;;6053610;29;21086;-64
2022/02/03 13:04:34;;;;;;;18.87;16.13;;;;;;;;;;6055349;29;20249;-65
2022/02/03 13:07:57;;;;;;;19.03;14.87;;;;;;;;;;6057906;29;20643;-62
2022/02/03 13:11:21;;;;;;;21.03;15.93;;;;;;;;;;6052505;29;20336;-65
2022/02/03 13:14:47;;;;;;;20.80;16.30;;;;;;;;;;6055119;29;20236;-64
2022/02/03 13:18:13;;;;;;;17.47;15.67;;;;;;;;;;6054565;29;20248;-64
2022/02/03 13:21:49;;;;;;;18.30;16.07;;;;;;;;;;6054112;29;20229;-64
2022/02/03 13:25:17;;;;;;;25.77;16.20;;;;;;;;;;6063636;29;20225;-65
2022/02/03 13:28:45;;;;;;;21.40;17.60;;;;;;;;;;6053080;29;20319;-65
2022/02/03 13:32:08;;;;;;;18.70;16.70;;;;;;;;;;6054739;29;20245;-65
2022/02/03 13:35:32;;;;;;;21.97;17.83;;;;;;;;;;6056554;29;20233;-65
2022/02/03 13:39:02;;;;;;;21.27;17.00;;;;;;;;;;6056401;29;20233;-66
2022/02/03 13:42:30;;;;;;;18.80;16.87;;;;;;;;;;6057934;29;20252;-66
2022/02/03 13:45:52;;;;;;;22.23;17.77;;;;;;;;;;6062466;29;20241;-66
2022/02/03 13:49:14;;;;;;;19.77;15.60;;;;;;;;;;6054060;29;20615;-65
2022/02/03 13:52:41;;;;;;;18.13;14.10;;;;;;;;;;6045697;29;20233;-65
2022/02/03 14:21:41;;;;;;;14.80;13.13;;;;;;;;;;6052218;29;22650;-65
2022/02/03 14:28:40;;;;;;;16.37;13.83;;;;;;;;;;6059668;29;20258;-65
2022/02/03 14:32:04;;;;;;;16.43;14.70;;;;;;;;;;6059723;29;20237;-65
2022/02/03 14:35:25;;;;;;;15.03;13.57;;;;;;;;;;6057425;29;20233;-63
2022/02/03 14:38:52;;;;;;;20.40;11.80;;;;;;;;;;6053224;29;20261;-63
2022/02/03 14:42:13;;;;;;;15.30;13.40;;;;;;;;;;6053738;29;20257;-65
2022/02/03 14:45:34;;;;;;;15.53;12.93;;;;;;;;;;6057040;29;20242;-64
2022/02/03 14:48:56;;;;;;;13.57;12.20;;;;;;;;;;6057335;29;20241;-64
2022/02/03 14:52:26;;;;;;;13.97;12.13;;;;;;;;;;6061956;29;20230;-64
2022/02/03 14:59:24;;;;;;;14.33;12.93;;;;;;;;;;6060645;29;20549;-64
2022/02/03 15:02:45;;;;;;;15.50;13.87;;;;;;;;;;6057690;29;20229;-65
2022/02/03 15:06:10;;;;;;;14.80;12.57;;;;;;;;;;6062112;29;20624;-65
2022/02/03 15:09:50;;;;;;;13.37;12.07;;;;;;;;;;6056320;29;20520;-63
2022/02/03 15:13:16;;;;;;;15.93;12.57;;;;;;;;;;6054055;29;20236;-64
2022/02/03 15:16:36;;;;;;;14.40;12.47;;;;;;;;;;6056626;29;20245;-64
2022/02/03 15:19:58;;;;;;;15.27;13.73;;;;;;;;;;6060082;29;20635;-65
2022/02/03 15:23:20;;;;;;;14.13;11.60;;;;;;;;;;6059408;29;20249;-65
2022/02/03 15:26:41;;;;;;;11.87;10.67;;;;;;;;;;6058018;29;20244;-65
2022/02/03 15:30:03;;;;;;;13.30;12.00;;;;;;;;;;6059870;29;20237;-65
2022/02/03 15:33:27;;;;;;;12.77;10.40;;;;;;;;;;6056543;29;22492;-63
2022/02/03 15:36:52;;;;;;;13.20;11.87;;;;;;;;;;6057398;29;20228;-62
2022/02/03 15:40:18;;;;;;;12.40;11.07;;;;;;;;;;6057898;29;20602;-66
2022/02/03 15:43:41;;;;;;;13.13;11.77;;;;;;;;;;6046636;29;20325;-64
2022/02/03 15:47:11;;;;;;;11.70;10.37;;;;;;;;;;6055028;29;20245;-64
2022/02/03 16:01:37;;;;;;;12.50;10.97;;;;;;;;;;6019857;29;20754;-64
2022/02/03 16:19:18;;;;;;;10.03;9.13;;;;;;;;;;6047941;29;20228;-65
2022/02/03 16:22:46;;;;;;;11.47;10.37;;;;;;;;;;6063853;29;20237;-65
2022/02/03 16:41:05;;;;;;;16.50;13.00;;;;;;;;;;6044248;29;20683;-63
2022/02/03 16:51:58;;;;;;;15.13;13.53;;;;;;;;;;6058543;29;20610;-65
2022/02/03 16:55:22;;;;;;;13.60;12.20;;;;;;;;;;6059213;29;20680;-64
2022/02/03 16:58:45;;;;;;;15.93;12.57;;;;;;;;;;6060071;29;20237;-63
2022/02/03 17:02:05;;;;;;;13.93;12.40;;;;;;;;;;6063737;29;20238;-64
2022/02/03 17:05:26;;;;;;;12.63;10.97;;;;;;;;;;6060503;29;20237;-64
2022/02/03 17:08:48;;;;;;;14.00;11.93;;;;;;;;;;6066365;29;20316;-64
2022/02/03 17:12:09;;;;;;;12.90;11.63;;;;;;;;;;6065250;29;20324;-63
2022/02/03 17:15:29;;;;;;;12.67;11.50;;;;;;;;;;6069811;29;20233;-64
2022/02/03 17:18:54;;;;;;;15.47;12.30;;;;;;;;;;6069007;29;20292;-64
2022/02/03 17:22:17;;;;;;;12.23;11.03;;;;;;;;;;6067404;29;20336;-64
2022/02/03 17:25:47;;;;;;;12.30;11.00;;;;;;;;;;6067250;29;20238;-64
2022/02/03 17:29:14;;;;;;;13.77;12.43;;;;;;;;;;6069664;29;20610;-64
2022/02/03 18:09:06;;;;;;;13.47;11.53;;;;;;;;;;6057092;29;20237;-64
2022/02/03 18:30:53;;;;;;;13.20;11.77;;;;;;;;;;6038802;29;20336;-64
2022/02/03 18:52:28;;;;;;;15.53;14.03;;;;;;;;;;6048578;29;20562;-64
2022/02/03 18:55:59;;;;;;;16.20;14.67;;;;;;;;;;6041526;29;20233;-65
2022/02/03 18:59:39;;;;;;;14.47;13.07;;;;;;;;;;6044639;29;20614;-63
2022/02/03 19:03:16;;;;;;;17.63;15.83;;;;;;;;;;6042093;29;20244;-65
2022/02/03 19:25:59;;;;;;;13.37;12.07;;;;;;;;;;6052637;29;20280;-64
2022/02/03 20:06:00;;;;;;;18.17;16.27;;;;;;;;;;6060579;29;20656;-63
2022/02/03 20:09:28;;;;;;;18.87;16.97;;;;;;;;;;6068708;29;20241;-62
2022/02/03 20:12:49;;;;;;;19.57;17.77;;;;;;;;;;6054910;29;20252;-62
2022/02/03 20:16:10;;;;;;;20.70;18.37;;;;;;;;;;6093055;23;20803;-65
2022/02/03 20:19:31;;;;;;;18.57;16.77;;;;;;;;;;6109150;28;20227;-66
2022/02/03 20:23:07;;;;;;;19.87;17.97;;;;;;;;;;6097154;28;20231;-64
2022/02/03 20:26:28;;;;;;;20.13;18.13;;;;;;;;;;6107976;28;20228;-63
2022/02/03 20:29:49;;;;;;;19.40;17.60;;;;;;;;;;6104895;28;20236;-64
2022/02/03 20:33:15;;;;;;;20.43;18.30;;;;;;;;;;6109327;28;20239;-65
2022/02/03 20:36:36;;;;;;;19.30;17.33;;;;;;;;;;6110953;28;20220;-64
2022/02/03 20:39:58;;;;;;;21.10;18.97;;;;;;;;;;6108041;28;20323;-65
2022/02/03 20:43:21;;;;;;;20.87;18.50;;;;;;;;;;6110263;28;20228;-63
2022/02/03 20:46:42;;;;;;;21.23;19.03;;;;;;;;;;6101780;28;20231;-63
2022/02/03 20:50:05;;;;;;;21.17;19.13;;;;;;;;;;6114090;28;20231;-63
2022/02/03 20:53:26;;;;;;;22.03;19.80;;;;;;;;;;6107014;28;22590;-64
2022/02/03 20:56:47;;;;;;;22.43;20.30;;;;;;;;;;6114057;28;20239;-62
2022/02/03 21:00:19;;;;;;;20.77;18.63;;;;;;;;;;6109203;28;20239;-63
2022/02/03 21:03:43;;;;;;;22.27;20.00;;;;;;;;;;6109379;28;20235;-64
2022/02/03 21:07:04;;;;;;;22.93;20.73;;;;;;;;;;6115091;28;20239;-65
2022/02/03 21:10:29;;;;;;;22.50;20.23;;;;;;;;;;6107328;28;20286;-63
2022/02/03 21:13:54;;;;;;;22.50;20.17;;;;;;;;;;6111745;28;20232;-64
2022/02/03 21:17:14;;;;;;;21.73;19.43;;;;;;;;;;6116939;28;20481;-64
2022/02/03 21:20:36;;;;;;;21.23;19.13;;;;;;;;;;6111729;28;20256;-63
2022/02/03 21:23:57;;;;;;;23.17;20.93;;;;;;;;;;6113772;28;20235;-64
2022/02/03 21:27:20;;;;;;;24.30;21.77;;;;;;;;;;6114984;28;20240;-65
2022/02/03 21:30:42;;;;;;;25.13;22.77;;;;;;;;;;6115368;28;20517;-64
2022/02/03 21:34:09;;;;;;;22.73;20.43;;;;;;;;;;6104443;28;20236;-65
2022/02/03 21:37:31;;;;;;;24.00;21.60;;;;;;;;;;6109127;28;20236;-65
2022/02/03 21:40:51;;;;;;;25.33;22.70;;;;;;;;;;6109986;28;20252;-62
2022/02/03 21:44:14;;;;;;;25.50;22.90;;;;;;;;;;6111571;28;20231;-62
2022/02/03 21:47:37;;;;;;;27.13;24.13;;;;;;;;;;6076649;28;20240;-63
2022/02/03 21:50:59;;;;;;;25.37;22.97;;;;;;;;;;6112504;28;20232;-64
2022/02/03 21:54:20;;;;;;;24.33;21.47;;;;;;;;;;6115976;28;20231;-64
2022/02/03 21:57:43;;;;;;;22.57;20.27;;;;;;;;;;6113552;28;20232;-64
2022/02/03 22:01:04;;;;;;;23.93;21.53;;;;;;;;;;6109712;28;20255;-63
2022/02/03 22:04:26;;;;;;;24.87;22.47;;;;;;;;;;6110461;28;20634;-64
2022/02/03 22:07:47;;;;;;;23.77;21.37;;;;;;;;;;6107525;28;20496;-64
2022/02/03 22:11:08;;;;;;;24.83;22.30;;;;;;;;;;6111373;28;20235;-64
2022/02/03 22:14:28;;;;;;;24.73;22.23;;;;;;;;;;6109602;28;20239;-64
2022/02/03 22:17:51;;;;;;;23.40;20.37;;;;;;;;;;6108315;28;20556;-64
2022/02/03 22:21:22;;;;;;;24.37;21.77;;;;;;;;;;6110046;28;20235;-65
2022/02/03 22:24:59;;;;;;;23.87;21.57;;;;;;;;;;6107576;28;20227;-64
2022/02/03 22:28:35;;;;;;;22.60;19.47;;;;;;;;;;6108331;28;20243;-65
2022/02/03 22:39:28;;;;;;;23.63;21.20;;;;;;;;;;6092251;28;20565;-63
2022/02/03 22:43:04;;;;;;;24.30;21.80;;;;;;;;;;6100654;28;20239;-63
2022/02/03 22:46:38;;;;;;;23.37;20.90;;;;;;;;;;6097525;28;22496;-63
2022/02/03 22:49:59;;;;;;;22.40;20.10;;;;;;;;;;6096895;28;20236;-62
2022/02/03 22:53:19;;;;;;;22.30;19.83;;;;;;;;;;6097294;28;20645;-64
2022/02/03 22:56:41;;;;;;;25.37;21.33;;;;;;;;;;6094657;28;20235;-63
2022/02/03 23:00:15;;;;;;;20.80;18.73;;;;;;;;;;6100002;28;20240;-63
2022/02/03 23:03:37;;;;;;;22.83;20.63;;;;;;;;;;6101247;28;20235;-63
2022/02/03 23:07:06;;;;;;;24.37;21.97;;;;;;;;;;6107126;28;20228;-62
2022/02/03 23:10:44;;;;;;;24.60;22.10;;;;;;;;;;6108408;28;20243;-63
2022/02/03 23:14:16;;;;;;;25.83;21.97;;;;;;;;;;6106745;28;20231;-63
2022/02/03 23:17:42;;;;;;;24.17;21.87;;;;;;;;;;6106544;28;20235;-63
2022/02/03 23:21:28;;;;;;;24.17;20.30;;;;;;;;;;6106897;28;20747;-62
2022/02/03 23:24:49;;;;;;;22.93;20.43;;;;;;;;;;6104209;28;20228;-62
2022/02/03 23:28:15;;;;;;;22.60;20.20;;;;;;;;;;6107888;28;20240;-64
2022/02/03 23:31:44;;;;;;;20.90;18.90;;;;;;;;;;6110694;28;20231;-62
2022/02/03 23:35:12;;;;;;;24.43;21.77;;;;;;;;;;6107677;28;20232;-63
2022/02/03 23:38:42;;;;;;;23.30;20.90;;;;;;;;;;6107455;28;20235;-63
2022/02/03 23:42:39;;;;;;;21.30;19.13;;;;;;;;;;6106414;28;20528;-62
